createdAt,value
2022-07-25T00:03:45.068Z,14.50
2022-07-25T00:08:50.494Z,14.40
2022-07-25T00:13:55.911Z,14.40
2022-07-25T00:19:01.850Z,14.30
2022-07-25T00:24:07.777Z,14.20
2022-07-25T00:29:13.868Z,14.20
2022-07-25T00:34:19.224Z,14.10
2022-07-25T00:39:24.528Z,14.10
2022-07-25T00:44:33.077Z,14.00
2022-07-25T00:49:38.836Z,14.10
2022-07-25T00:54:45.125Z,14.00
2022-07-25T00:59:50.623Z,14.00
2022-07-25T01:04:57.672Z,13.90
2022-07-25T01:10:03.093Z,13.90
2022-07-25T01:15:09.773Z,13.80
2022-07-25T01:20:16.948Z,13.80
2022-07-25T01:25:23.731Z,13.80
2022-07-25T01:30:29.259Z,13.80
2022-07-25T01:35:34.698Z,13.70
2022-07-25T01:40:42.967Z,13.60
2022-07-25T01:45:48.903Z,13.60
2022-07-25T01:50:54.341Z,13.60
2022-07-25T01:56:01.049Z,13.50
2022-07-25T02:01:08.209Z,13.50
2022-07-25T02:06:13.774Z,13.40
2022-07-25T02:11:19.112Z,13.40
2022-07-25T02:16:28.849Z,13.30
2022-07-25T02:21:31.591Z,13.30
2022-07-25T02:26:37.054Z,13.20
2022-07-25T02:31:43.676Z,13.20
2022-07-25T02:36:48.986Z,13.20
2022-07-25T02:41:55.054Z,13.20
2022-07-25T02:47:00.830Z,13.20
2022-07-25T02:52:06.294Z,13.20
2022-07-25T02:57:11.735Z,13.20
2022-07-25T03:02:17.469Z,13.10
2022-07-25T03:07:23.005Z,13.10
2022-07-25T03:12:28.448Z,13.10
2022-07-25T03:17:33.909Z,13.10
2022-07-25T03:22:42.995Z,13.10
2022-07-25T03:27:48.434Z,13.10
2022-07-25T03:32:55.468Z,13.10
2022-07-25T03:38:00.934Z,13.10
2022-07-25T03:43:06.693Z,13.10
2022-07-25T03:48:12.729Z,13.10
2022-07-25T03:53:18.145Z,13.20
2022-07-25T03:58:23.481Z,13.30
2022-07-25T04:03:28.834Z,13.30
2022-07-25T04:08:34.238Z,13.40
2022-07-25T04:13:39.786Z,13.50
2022-07-25T04:18:45.271Z,13.60
2022-07-25T04:23:51.413Z,13.60
2022-07-25T04:28:58.417Z,13.80
2022-07-25T04:34:04.110Z,13.90
2022-07-25T04:39:10.063Z,14.00
2022-07-25T04:44:15.505Z,14.20
2022-07-25T04:49:21.379Z,14.40
2022-07-25T04:54:26.755Z,14.50
2022-07-25T04:59:32.396Z,14.70
2022-07-25T05:04:43.445Z,14.90
2022-07-25T05:09:46.172Z,15.00
2022-07-25T05:14:51.540Z,15.30
2022-07-25T05:19:58.391Z,15.50
2022-07-25T05:25:03.900Z,15.70
2022-07-25T05:30:12.635Z,15.90
2022-07-25T05:35:18.059Z,16.10
2022-07-25T05:40:23.420Z,16.30
2022-07-25T05:45:28.820Z,16.60
2022-07-25T05:50:34.544Z,16.90
2022-07-25T05:55:40.683Z,17.30
2022-07-25T06:00:46.673Z,17.70
2022-07-25T06:05:52.078Z,18.00
2022-07-25T06:10:59.396Z,18.50
2022-07-25T06:16:06.590Z,18.80
2022-07-25T06:21:12.065Z,19.40
2022-07-25T06:26:17.480Z,19.70
2022-07-25T06:31:22.973Z,20.10
2022-07-25T06:36:32.570Z,20.50
2022-07-25T06:41:37.398Z,20.90
2022-07-25T06:46:43.628Z,21.30
2022-07-25T06:51:49.423Z,21.60
2022-07-25T06:56:55.780Z,21.70
2022-07-25T07:02:01.316Z,22.10
2022-07-25T07:07:06.742Z,22.40
2022-07-25T07:12:12.771Z,22.80
2022-07-25T07:17:18.167Z,23.20
2022-07-25T07:22:23.560Z,23.50
2022-07-25T07:27:28.995Z,23.80
2022-07-25T07:32:34.455Z,24.20
2022-07-25T07:37:43.486Z,24.40
2022-07-25T07:42:49.190Z,24.90
2022-07-25T07:47:56.003Z,25.10
2022-07-25T07:53:01.936Z,25.60
2022-07-25T07:58:08.151Z,25.90
2022-07-25T08:03:14.096Z,26.20
2022-07-25T08:08:19.629Z,26.70
2022-07-25T08:13:30.782Z,27.00
2022-07-25T08:18:36.267Z,27.10
2022-07-25T08:23:41.699Z,27.40
2022-07-25T08:28:48.386Z,27.60
2022-07-25T08:33:54.691Z,28.30
2022-07-25T08:39:00.105Z,28.60
2022-07-25T08:44:06.069Z,29.20
2022-07-25T08:49:12.660Z,29.30
2022-07-25T08:54:19.410Z,29.50
2022-07-25T08:59:26.209Z,30.10
2022-07-25T09:04:33.307Z,30.60
2022-07-25T09:09:40.118Z,30.30
2022-07-25T09:14:47.976Z,30.80
2022-07-25T09:19:58.903Z,30.70
2022-07-25T09:25:04.351Z,30.80
2022-07-25T09:30:17.410Z,31.20
2022-07-25T09:35:25.664Z,31.30
2022-07-25T09:40:32.458Z,31.00
2022-07-25T09:45:39.482Z,31.20
2022-07-25T09:50:44.937Z,30.70
2022-07-25T09:55:52.765Z,30.90
2022-07-25T10:01:07.147Z,31.30
2022-07-25T10:06:19.961Z,31.80
2022-07-25T10:11:30.791Z,31.60
2022-07-25T10:16:39.106Z,31.50
2022-07-25T10:21:46.481Z,31.40
2022-07-25T10:27:12.106Z,31.70
2022-07-25T10:32:19.486Z,32.10
2022-07-25T10:37:32.231Z,32.60
2022-07-25T10:42:39.277Z,32.60
2022-07-25T10:47:47.617Z,33.00
2022-07-25T10:53:07.121Z,32.40
2022-07-25T10:58:18.439Z,32.10
2022-07-25T11:03:23.154Z,32.40
2022-07-25T11:08:36.171Z,32.60
2022-07-25T11:13:45.137Z,32.30
2022-07-25T11:18:51.705Z,32.50
2022-07-25T11:24:00.861Z,32.50
2022-07-25T11:29:09.551Z,32.80
2022-07-25T11:34:15.234Z,33.40
2022-07-25T11:39:20.877Z,32.80
2022-07-25T11:44:35.091Z,33.40
2022-07-25T11:49:52.612Z,33.80
2022-07-25T11:55:03.963Z,33.50
2022-07-25T12:00:22.698Z,33.60
2022-07-25T12:05:35.224Z,33.10
2022-07-25T12:10:42.053Z,33.40
2022-07-25T12:15:47.638Z,33.50
2022-07-25T12:20:53.952Z,33.10
2022-07-25T12:25:59.352Z,32.60
2022-07-25T12:31:07.104Z,32.50
2022-07-25T12:36:14.972Z,32.50
2022-07-25T12:41:21.882Z,32.40
2022-07-25T12:46:27.843Z,32.80
2022-07-25T12:51:34.302Z,33.00
2022-07-25T12:56:40.788Z,32.40
2022-07-25T13:01:46.326Z,32.70
2022-07-25T13:06:51.989Z,32.60
2022-07-25T13:11:59.157Z,31.90
2022-07-25T13:17:04.784Z,32.20
2022-07-25T13:22:15.146Z,32.50
2022-07-25T13:27:22.625Z,32.60
2022-07-25T13:32:28.869Z,32.40
2022-07-25T13:37:41.850Z,31.80
2022-07-25T13:42:47.275Z,31.80
2022-07-25T13:48:12.018Z,31.70
2022-07-25T13:53:00.947Z,31.70
2022-07-25T13:58:07.136Z,31.80
2022-07-25T14:03:12.759Z,31.30
2022-07-25T14:08:20.056Z,31.10
2022-07-25T14:13:28.106Z,31.10
2022-07-25T14:18:33.566Z,31.30
2022-07-25T14:23:39.013Z,31.60
2022-07-25T14:28:45.344Z,31.60
2022-07-25T14:33:52.917Z,31.40
2022-07-25T14:38:58.518Z,31.30
2022-07-25T14:44:04.764Z,31.20
2022-07-25T14:49:15.393Z,31.40
2022-07-25T14:54:21.819Z,31.40
2022-07-25T14:59:28.456Z,31.30
2022-07-25T15:04:34.195Z,31.30
2022-07-25T15:09:39.720Z,31.20
2022-07-25T15:14:45.028Z,31.10
2022-07-25T15:19:50.816Z,31.10
2022-07-25T15:30:03.445Z,30.90
2022-07-25T15:35:10.010Z,30.80
2022-07-25T15:40:15.474Z,30.70
2022-07-25T15:45:37.750Z,30.60
2022-07-25T15:50:30.014Z,30.50
2022-07-25T15:55:39.124Z,30.40
2022-07-25T16:00:44.848Z,30.40
2022-07-25T16:05:50.385Z,30.30
2022-07-25T16:10:55.806Z,30.20
2022-07-25T16:16:01.224Z,30.20
2022-07-25T16:21:07.130Z,30.20
2022-07-25T16:26:14.933Z,30.10
2022-07-25T16:31:20.450Z,30.00
2022-07-25T16:36:26.926Z,29.90
2022-07-25T16:41:33.723Z,29.70
2022-07-25T16:46:39.714Z,29.70
2022-07-25T16:51:45.814Z,29.60
2022-07-25T16:56:53.741Z,29.50
2022-07-25T17:01:58.465Z,29.20
2022-07-25T17:07:04.339Z,28.90
2022-07-25T17:12:09.763Z,28.80
2022-07-25T17:17:26.892Z,28.70
2022-07-25T17:22:33.716Z,28.70
2022-07-25T17:27:39.058Z,28.60
2022-07-25T17:32:47.614Z,28.50
2022-07-25T17:37:53.484Z,28.30
2022-07-25T17:42:58.831Z,28.10
2022-07-25T17:48:04.607Z,27.80
2022-07-25T17:53:10.035Z,27.70
2022-07-25T17:58:17.204Z,27.40
2022-07-25T18:03:24.006Z,27.20
2022-07-25T18:08:49.896Z,27.00
2022-07-25T18:13:59.196Z,26.90
2022-07-25T18:19:05.412Z,26.70
2022-07-25T18:24:11.218Z,26.70
2022-07-25T18:29:17.739Z,26.60
2022-07-25T18:34:23.070Z,26.40
2022-07-25T18:39:28.553Z,26.20
2022-07-25T18:44:35.351Z,25.90
2022-07-25T18:49:40.815Z,25.70
2022-07-25T18:54:46.186Z,25.60
2022-07-25T18:59:51.888Z,25.40
2022-07-25T19:04:57.306Z,25.20
2022-07-25T19:10:04.062Z,25.10
2022-07-25T19:15:09.947Z,24.80
2022-07-25T19:20:16.111Z,24.60
2022-07-25T19:25:21.731Z,24.40
2022-07-25T19:30:30.267Z,24.20
2022-07-25T19:35:37.083Z,24.00
2022-07-25T19:40:43.407Z,23.90
2022-07-25T19:45:49.856Z,24.00
2022-07-25T19:50:55.295Z,24.00
2022-07-25T19:56:01.622Z,23.90
2022-07-25T20:01:07.092Z,23.70
2022-07-25T20:06:12.815Z,23.60
2022-07-25T20:11:18.224Z,23.40
2022-07-25T20:16:24.129Z,23.30
2022-07-25T20:21:30.647Z,23.20
2022-07-25T20:26:36.165Z,23.10
2022-07-25T20:31:42.821Z,23.10
2022-07-25T20:36:48.666Z,23.10
2022-07-25T20:41:54.675Z,23.10
2022-07-25T20:47:00.093Z,23.10
2022-07-25T20:52:05.732Z,23.00
2022-07-25T20:57:12.014Z,23.00
2022-07-25T21:02:17.732Z,22.90
2022-07-25T21:07:23.236Z,22.80
2022-07-25T21:12:32.425Z,22.60
2022-07-25T21:17:36.196Z,22.50
2022-07-25T21:22:41.723Z,22.50
2022-07-25T21:27:48.463Z,22.40
2022-07-25T21:32:53.796Z,22.40
2022-07-25T21:37:59.456Z,22.30
2022-07-25T21:43:04.757Z,22.30
2022-07-25T21:48:11.777Z,22.30
2022-07-25T21:53:17.927Z,22.20
2022-07-25T21:58:23.451Z,22.20
2022-07-25T22:03:28.996Z,22.10
2022-07-25T22:08:34.561Z,22.10
2022-07-25T22:13:43.164Z,22.00
2022-07-25T22:18:47.585Z,21.90
2022-07-25T22:23:57.802Z,21.80
2022-07-25T22:29:03.395Z,21.70
2022-07-25T22:34:09.987Z,21.70
2022-07-25T22:39:17.167Z,21.70
2022-07-25T22:44:22.781Z,21.60
2022-07-25T22:49:30.331Z,21.50
2022-07-25T22:54:37.966Z,21.50
2022-07-25T22:59:43.554Z,21.40
2022-07-25T23:04:49.186Z,21.30
2022-07-25T23:09:54.748Z,21.30
2022-07-25T23:15:00.629Z,21.30
2022-07-25T23:20:08.061Z,21.40
2022-07-25T23:25:13.736Z,21.40
2022-07-25T23:30:19.223Z,21.40
2022-07-25T23:35:24.770Z,21.40
2022-07-25T23:40:30.952Z,21.40
2022-07-25T23:45:51.371Z,21.30
2022-07-25T23:50:57.364Z,21.30
2022-07-25T23:56:02.937Z,21.30
